sensor_id;sensor_type;location;lat;lon;timestamp;pressure;altitude;pressure_sealevel;temperature;humidity
64889;BME280;51386;53.082;8.816;2022-09-09T00:00:13;100723.94;;;20.97;60.94
64889;BME280;51386;53.082;8.816;2022-09-09T00:02:52;100719.38;;;20.97;60.77
64889;BME280;51386;53.082;8.816;2022-09-09T00:05:32;100720.47;;;20.96;61.53
64889;BME280;51386;53.082;8.816;2022-09-09T00:08:03;100719.88;;;20.94;61.23
64889;BME280;51386;53.082;8.816;2022-09-09T00:10:39;100719.25;;;20.87;61.94
64889;BME280;51386;53.082;8.816;2022-09-09T00:13:20;100721.00;;;20.81;61.68
64889;BME280;51386;53.082;8.816;2022-09-09T00:16:00;100713.47;;;20.78;62.15
64889;BME280;51386;53.082;8.816;2022-09-09T00:18:40;100717.44;;;20.76;62.45
64889;BME280;51386;53.082;8.816;2022-09-09T00:21:14;100714.19;;;20.74;62.10
64889;BME280;51386;53.082;8.816;2022-09-09T00:23:50;100714.44;;;20.72;62.15
64889;BME280;51386;53.082;8.816;2022-09-09T00:26:29;100706.06;;;20.69;62.25
64889;BME280;51386;53.082;8.816;2022-09-09T00:29:11;100714.00;;;20.64;62.76
64889;BME280;51386;53.082;8.816;2022-09-09T00:31:41;100711.88;;;20.66;62.38
64889;BME280;51386;53.082;8.816;2022-09-09T00:34:13;100704.94;;;20.65;62.91
64889;BME280;51386;53.082;8.816;2022-09-09T00:36:48;100708.66;;;20.64;62.54
64889;BME280;51386;53.082;8.816;2022-09-09T00:39:27;100714.50;;;20.61;62.82
64889;BME280;51386;53.082;8.816;2022-09-09T00:42:13;100713.84;;;20.54;62.91
64889;BME280;51386;53.082;8.816;2022-09-09T00:44:56;100712.22;;;20.53;62.75
64889;BME280;51386;53.082;8.816;2022-09-09T00:47:45;100718.03;;;20.50;62.64
64889;BME280;51386;53.082;8.816;2022-09-09T00:50:30;100716.06;;;20.45;62.77
64889;BME280;51386;53.082;8.816;2022-09-09T00:53:28;100714.13;;;20.41;63.00
64889;BME280;51386;53.082;8.816;2022-09-09T00:56:12;100717.84;;;20.40;62.59
64889;BME280;51386;53.082;8.816;2022-09-09T00:58:43;100716.78;;;20.41;62.63
64889;BME280;51386;53.082;8.816;2022-09-09T01:01:17;100721.09;;;20.42;62.77
64889;BME280;51386;53.082;8.816;2022-09-09T01:03:51;100723.19;;;20.40;62.65
64889;BME280;51386;53.082;8.816;2022-09-09T01:06:28;100712.47;;;20.40;62.48
64889;BME280;51386;53.082;8.816;2022-09-09T01:09:17;100715.31;;;20.33;62.73
64889;BME280;51386;53.082;8.816;2022-09-09T01:11:55;100713.81;;;20.37;62.97
64889;BME280;51386;53.082;8.816;2022-09-09T01:14:40;100724.25;;;20.39;62.42
64889;BME280;51386;53.082;8.816;2022-09-09T01:17:15;100721.09;;;20.42;62.56
64889;BME280;51386;53.082;8.816;2022-09-09T01:19:58;100718.91;;;20.39;62.75
64889;BME280;51386;53.082;8.816;2022-09-09T01:22:36;100712.97;;;20.37;62.73
64889;BME280;51386;53.082;8.816;2022-09-09T01:25:28;100714.75;;;20.31;62.73
64889;BME280;51386;53.082;8.816;2022-09-09T01:28:01;100710.78;;;20.34;62.66
64889;BME280;51386;53.082;8.816;2022-09-09T01:30:40;100711.03;;;20.32;62.31
64889;BME280;51386;53.082;8.816;2022-09-09T01:33:14;100708.09;;;20.34;61.92
64889;BME280;51386;53.082;8.816;2022-09-09T01:35:48;100710.22;;;20.32;61.87
64889;BME280;51386;53.082;8.816;2022-09-09T01:38:18;100699.53;;;20.32;62.46
64889;BME280;51386;53.082;8.816;2022-09-09T01:40:46;100705.44;;;20.34;62.07
64889;BME280;51386;53.082;8.816;2022-09-09T01:43:15;100701.13;;;20.33;61.73
64889;BME280;51386;53.082;8.816;2022-09-09T01:45:44;100698.44;;;20.33;62.13
64889;BME280;51386;53.082;8.816;2022-09-09T01:48:13;100686.38;;;20.30;61.95
64889;BME280;51386;53.082;8.816;2022-09-09T01:50:41;100684.75;;;20.29;61.59
64889;BME280;51386;53.082;8.816;2022-09-09T01:53:08;100683.94;;;20.29;62.07
64889;BME280;51386;53.082;8.816;2022-09-09T01:55:40;100695.09;;;20.25;61.98
64889;BME280;51386;53.082;8.816;2022-09-09T01:58:28;100699.28;;;20.21;61.44
64889;BME280;51386;53.082;8.816;2022-09-09T02:01:08;100695.09;;;20.25;61.26
64889;BME280;51386;53.082;8.816;2022-09-09T02:03:44;100692.44;;;20.25;61.43
64889;BME280;51386;53.082;8.816;2022-09-09T02:06:26;100685.09;;;20.21;61.67
64889;BME280;51386;53.082;8.816;2022-09-09T02:08:57;100681.19;;;20.23;61.70
64889;BME280;51386;53.082;8.816;2022-09-09T02:11:28;100680.72;;;20.27;61.70
64889;BME280;51386;53.082;8.816;2022-09-09T02:14:03;100675.69;;;20.30;61.34
64889;BME280;51386;53.082;8.816;2022-09-09T02:16:39;100689.97;;;20.36;61.18
64889;BME280;51386;53.082;8.816;2022-09-09T02:19:13;100688.66;;;20.38;60.84
64889;BME280;51386;53.082;8.816;2022-09-09T02:21:45;100693.19;;;20.38;60.87
64889;BME280;51386;53.082;8.816;2022-09-09T02:24:15;100682.66;;;20.31;60.90
64889;BME280;51386;53.082;8.816;2022-09-09T02:26:48;100684.75;;;20.29;61.14
64889;BME280;51386;53.082;8.816;2022-09-09T02:29:21;100686.88;;;20.27;60.58
64889;BME280;51386;53.082;8.816;2022-09-09T02:31:52;100687.69;;;20.28;60.99
64889;BME280;51386;53.082;8.816;2022-09-09T02:34:23;100700.00;;;20.29;60.33
64889;BME280;51386;53.082;8.816;2022-09-09T02:36:55;100686.16;;;20.20;60.63
64889;BME280;51386;53.082;8.816;2022-09-09T02:39:24;100693.28;;;20.14;61.00
64889;BME280;51386;53.082;8.816;2022-09-09T02:41:51;100689.34;;;20.05;60.78
64889;BME280;51386;53.082;8.816;2022-09-09T02:44:21;100686.59;;;20.00;61.07
64889;BME280;51386;53.082;8.816;2022-09-09T02:47:22;100676.50;;;19.91;61.38
64889;BME280;51386;53.082;8.816;2022-09-09T02:50:04;100680.56;;;19.93;61.08
64889;BME280;51386;53.082;8.816;2022-09-09T02:52:47;100668.84;;;19.94;61.20
64889;BME280;51386;53.082;8.816;2022-09-09T02:55:26;100675.22;;;19.93;60.90
64889;BME280;51386;53.082;8.816;2022-09-09T02:57:57;100676.25;;;19.92;61.24
64889;BME280;51386;53.082;8.816;2022-09-09T03:00:28;100684.28;;;19.92;61.04
64889;BME280;51386;53.082;8.816;2022-09-09T03:02:56;100679.88;;;19.86;60.69
64889;BME280;51386;53.082;8.816;2022-09-09T03:05:24;100674.13;;;19.78;60.94
64889;BME280;51386;53.082;8.816;2022-09-09T03:07:52;100683.88;;;19.72;60.91
64889;BME280;51386;53.082;8.816;2022-09-09T03:10:19;100685.41;;;19.68;61.01
64889;BME280;51386;53.082;8.816;2022-09-09T03:12:47;100684.22;;;19.64;61.45
64889;BME280;51386;53.082;8.816;2022-09-09T03:15:15;100683.66;;;19.62;61.12
64889;BME280;51386;53.082;8.816;2022-09-09T03:17:43;100686.56;;;19.61;61.32
64889;BME280;51386;53.082;8.816;2022-09-09T03:20:11;100685.50;;;19.62;61.47
64889;BME280;51386;53.082;8.816;2022-09-09T03:22:39;100690.63;;;19.63;61.63
64889;BME280;51386;53.082;8.816;2022-09-09T03:25:08;100691.09;;;19.60;61.59
64889;BME280;51386;53.082;8.816;2022-09-09T03:27:35;100699.69;;;19.62;61.52
64889;BME280;51386;53.082;8.816;2022-09-09T03:30:03;100699.69;;;19.62;61.70
64889;BME280;51386;53.082;8.816;2022-09-09T03:32:31;100700.50;;;19.63;61.47
64889;BME280;51386;53.082;8.816;2022-09-09T03:34:59;100705.59;;;19.64;61.49
64889;BME280;51386;53.082;8.816;2022-09-09T03:37:27;100702.47;;;19.67;61.25
64889;BME280;51386;53.082;8.816;2022-09-09T03:39:54;100704.88;;;19.69;61.40
64889;BME280;51386;53.082;8.816;2022-09-09T03:42:21;100707.81;;;19.67;61.18
64889;BME280;51386;53.082;8.816;2022-09-09T03:44:49;100702.47;;;19.67;61.54
64889;BME280;51386;53.082;8.816;2022-09-09T03:47:18;100706.28;;;19.71;60.97
64889;BME280;51386;53.082;8.816;2022-09-09T03:49:46;100703.59;;;19.71;60.82
64889;BME280;51386;53.082;8.816;2022-09-09T03:52:15;100703.59;;;19.71;60.82
64889;BME280;51386;53.082;8.816;2022-09-09T03:54:49;100698.25;;;19.71;61.33
64889;BME280;51386;53.082;8.816;2022-09-09T03:57:20;100702.31;;;19.74;61.07
64889;BME280;51386;53.082;8.816;2022-09-09T03:59:48;100701.50;;;19.73;60.88
64889;BME280;51386;53.082;8.816;2022-09-09T04:02:16;100696.16;;;19.73;61.13
64889;BME280;51386;53.082;8.816;2022-09-09T04:04:43;100699.44;;;19.75;61.28
64889;BME280;51386;53.082;8.816;2022-09-09T04:07:10;100696.78;;;19.75;60.89
64889;BME280;51386;53.082;8.816;2022-09-09T04:09:40;100694.66;;;19.77;60.85
64889;BME280;51386;53.082;8.816;2022-09-09T04:12:08;100702.69;;;19.77;61.17
64889;BME280;51386;53.082;8.816;2022-09-09T04:14:35;100702.19;;;19.80;60.89
64889;BME280;51386;53.082;8.816;2022-09-09T04:17:02;100709.16;;;19.81;60.94
64889;BME280;51386;53.082;8.816;2022-09-09T04:19:33;100710.00;;;19.82;60.84
64889;BME280;51386;53.082;8.816;2022-09-09T04:22:00;100710.19;;;19.80;61.42
64889;BME280;51386;53.082;8.816;2022-09-09T04:24:27;100704.28;;;19.78;61.33
64889;BME280;51386;53.082;8.816;2022-09-09T04:26:57;100710.81;;;19.82;61.43
64889;BME280;51386;53.082;8.816;2022-09-09T04:29:24;100716.00;;;19.89;61.10
64889;BME280;51386;53.082;8.816;2022-09-09T04:31:52;100708.31;;;19.92;60.88
64889;BME280;51386;53.082;8.816;2022-09-09T04:34:20;100718.78;;;19.94;60.80
64889;BME280;51386;53.082;8.816;2022-09-09T04:36:48;100712.16;;;19.96;60.95
64889;BME280;51386;53.082;8.816;2022-09-09T04:39:15;100715.41;;;19.98;60.98
64889;BME280;51386;53.082;8.816;2022-09-09T04:41:43;100717.00;;;19.99;61.06
64889;BME280;51386;53.082;8.816;2022-09-09T04:44:11;100713.06;;;20.02;61.10
64889;BME280;51386;53.082;8.816;2022-09-09T04:46:39;100721.19;;;20.07;60.98
64889;BME280;51386;53.082;8.816;2022-09-09T04:49:08;100720.97;;;20.08;60.76
64889;BME280;51386;53.082;8.816;2022-09-09T04:51:41;100727.91;;;20.09;60.70
64889;BME280;51386;53.082;8.816;2022-09-09T04:54:08;100734.91;;;20.10;60.89
64889;BME280;51386;53.082;8.816;2022-09-09T04:56:36;100735.13;;;20.09;60.71
64889;BME280;51386;53.082;8.816;2022-09-09T04:59:03;100736.50;;;20.11;61.10
64889;BME280;51386;53.082;8.816;2022-09-09T05:01:32;100735.94;;;20.09;60.92
64889;BME280;51386;53.082;8.816;2022-09-09T05:04:01;100740.72;;;20.07;61.16
64889;BME280;51386;53.082;8.816;2022-09-09T05:06:29;100744.41;;;20.06;61.18
64889;BME280;51386;53.082;8.816;2022-09-09T05:08:59;100742.25;;;20.03;60.80
64889;BME280;51386;53.082;8.816;2022-09-09T05:11:29;100747.00;;;20.01;61.16
64889;BME280;51386;53.082;8.816;2022-09-09T05:13:57;100742.13;;;19.98;61.30
64889;BME280;51386;53.082;8.816;2022-09-09T05:16:24;100751.19;;;19.97;61.31
64889;BME280;51386;53.082;8.816;2022-09-09T05:18:53;100749.56;;;19.96;60.81
64889;BME280;51386;53.082;8.816;2022-09-09T05:21:23;100751.19;;;19.97;61.33
64889;BME280;51386;53.082;8.816;2022-09-09T05:23:52;100751.19;;;19.97;60.83
64889;BME280;51386;53.082;8.816;2022-09-09T05:26:21;100749.56;;;19.96;60.81
64889;BME280;51386;53.082;8.816;2022-09-09T05:28:49;100752.81;;;19.98;60.80
64889;BME280;51386;53.082;8.816;2022-09-09T05:31:18;100753.41;;;20.00;61.01
64889;BME280;51386;53.082;8.816;2022-09-09T05:33:47;100764.31;;;19.99;60.86
64889;BME280;51386;53.082;8.816;2022-09-09T05:36:19;100759.69;;;19.94;61.24
64889;BME280;51386;53.082;8.816;2022-09-09T05:38:48;100756.41;;;19.92;60.75
64889;BME280;51386;53.082;8.816;2022-09-09T05:41:17;100763.41;;;19.93;61.29
64889;BME280;51386;53.082;8.816;2022-09-09T05:43:45;100762.81;;;19.91;60.95
64889;BME280;51386;53.082;8.816;2022-09-09T05:46:17;100768.38;;;19.90;61.22
64889;BME280;51386;53.082;8.816;2022-09-09T05:48:46;100765.97;;;19.88;61.42
64889;BME280;51386;53.082;8.816;2022-09-09T05:51:18;100770.28;;;19.89;61.01
64889;BME280;51386;53.082;8.816;2022-09-09T05:53:46;100767.72;;;19.94;60.88
64889;BME280;51386;53.082;8.816;2022-09-09T05:56:16;100772.09;;;20.00;60.91
64889;BME280;51386;53.082;8.816;2022-09-09T05:58:47;100763.63;;;20.03;61.19
64889;BME280;51386;53.082;8.816;2022-09-09T06:01:17;100771.16;;;20.06;61.00
64889;BME280;51386;53.082;8.816;2022-09-09T06:03:47;100764.19;;;20.05;60.49
64889;BME280;51386;53.082;8.816;2022-09-09T06:06:18;100767.13;;;20.04;60.87
64889;BME280;51386;53.082;8.816;2022-09-09T06:08:52;100770.00;;;20.02;60.47
64889;BME280;51386;53.082;8.816;2022-09-09T06:11:22;100768.38;;;20.01;60.87
64889;BME280;51386;53.082;8.816;2022-09-09T06:13:50;100768.72;;;20.05;60.80
64889;BME280;51386;53.082;8.816;2022-09-09T06:16:23;100768.38;;;20.13;60.71
64889;BME280;51386;53.082;8.816;2022-09-09T06:18:51;100771.72;;;20.20;60.55
64889;BME280;51386;53.082;8.816;2022-09-09T06:21:24;100772.41;;;20.27;60.27
64889;BME280;51386;53.082;8.816;2022-09-09T06:23:52;100764.81;;;20.36;60.36
64889;BME280;51386;53.082;8.816;2022-09-09T06:26:28;100762.81;;;20.43;59.64
64889;BME280;51386;53.082;8.816;2022-09-09T06:28:56;100765.69;;;20.53;59.87
64889;BME280;51386;53.082;8.816;2022-09-09T06:31:27;100761.59;;;20.62;59.56
64889;BME280;51386;53.082;8.816;2022-09-09T06:33:58;100766.56;;;20.70;58.98
64889;BME280;51386;53.082;8.816;2022-09-09T06:36:29;100767.44;;;20.75;59.16
64889;BME280;51386;53.082;8.816;2022-09-09T06:38:59;100773.72;;;20.81;59.09
64889;BME280;51386;53.082;8.816;2022-09-09T06:41:30;100765.78;;;20.86;58.74
64889;BME280;51386;53.082;8.816;2022-09-09T06:43:57;100764.38;;;20.83;58.33
64889;BME280;51386;53.082;8.816;2022-09-09T06:46:27;100770.00;;;20.82;58.04
64889;BME280;51386;53.082;8.816;2022-09-09T06:48:56;100772.75;;;20.87;58.67
64889;BME280;51386;53.082;8.816;2022-09-09T06:51:27;100769.34;;;20.91;58.37
64889;BME280;51386;53.082;8.816;2022-09-09T06:53:57;100765.28;;;20.89;57.83
64889;BME280;51386;53.082;8.816;2022-09-09T06:56:27;100766.44;;;20.93;58.26
64889;BME280;51386;53.082;8.816;2022-09-09T06:58:57;100772.59;;;20.93;58.12
64889;BME280;51386;53.082;8.816;2022-09-09T07:01:33;100769.19;;;20.98;58.26
64889;BME280;51386;53.082;8.816;2022-09-09T07:04:03;100764.84;;;21.09;57.79
64889;BME280;51386;53.082;8.816;2022-09-09T07:06:34;100769.25;;;21.31;57.69
64889;BME280;51386;53.082;8.816;2022-09-09T07:09:04;100768.72;;;21.68;57.08
64889;BME280;51386;53.082;8.816;2022-09-09T07:11:37;100762.03;;;22.08;56.09
64889;BME280;51386;53.082;8.816;2022-09-09T07:14:04;100758.81;;;22.55;54.73
64889;BME280;51386;53.082;8.816;2022-09-09T07:16:32;100753.25;;;23.15;54.15
64889;BME280;51386;53.082;8.816;2022-09-09T07:19:00;100763.44;;;23.91;53.41
64889;BME280;51386;53.082;8.816;2022-09-09T07:21:32;100765.91;;;24.80;51.11
64889;BME280;51386;53.082;8.816;2022-09-09T07:24:01;100771.06;;;25.47;48.43
64889;BME280;51386;53.082;8.816;2022-09-09T07:26:30;100774.19;;;25.99;47.33
64889;BME280;51386;53.082;8.816;2022-09-09T07:28:58;100778.25;;;26.56;45.82
64889;BME280;51386;53.082;8.816;2022-09-09T07:31:28;100767.19;;;27.30;45.51
64889;BME280;51386;53.082;8.816;2022-09-09T07:33:59;100777.91;;;27.97;42.99
64889;BME280;51386;53.082;8.816;2022-09-09T07:36:29;100784.72;;;28.56;41.60
64889;BME280;51386;53.082;8.816;2022-09-09T07:39:04;100779.31;;;28.93;40.04
64889;BME280;51386;53.082;8.816;2022-09-09T07:41:34;100782.16;;;29.20;39.37
64889;BME280;51386;53.082;8.816;2022-09-09T07:44:07;100778.69;;;29.33;38.34
64889;BME280;51386;53.082;8.816;2022-09-09T07:46:36;100786.47;;;29.54;39.40
64889;BME280;51386;53.082;8.816;2022-09-09T07:49:04;100781.09;;;30.08;39.09
64889;BME280;51386;53.082;8.816;2022-09-09T07:51:33;100785.91;;;30.74;37.38
64889;BME280;51386;53.082;8.816;2022-09-09T07:54:04;100775.00;;;31.32;35.30
64889;BME280;51386;53.082;8.816;2022-09-09T07:56:33;100786.09;;;31.66;35.03
64889;BME280;51386;53.082;8.816;2022-09-09T07:59:00;100786.19;;;32.40;34.97
64889;BME280;51386;53.082;8.816;2022-09-09T08:01:31;100787.66;;;33.14;33.44
64889;BME280;51386;53.082;8.816;2022-09-09T08:04:02;100780.88;;;33.37;32.86
64889;BME280;51386;53.082;8.816;2022-09-09T08:06:34;100788.31;;;33.11;33.23
64889;BME280;51386;53.082;8.816;2022-09-09T08:09:04;100776.25;;;32.52;32.45
64889;BME280;51386;53.082;8.816;2022-09-09T08:11:33;100779.59;;;32.41;32.67
64889;BME280;51386;53.082;8.816;2022-09-09T08:14:05;100776.34;;;32.13;32.60
64889;BME280;51386;53.082;8.816;2022-09-09T08:16:38;100782.69;;;31.52;34.25
64889;BME280;51386;53.082;8.816;2022-09-09T08:19:06;100786.13;;;30.77;35.02
64889;BME280;51386;53.082;8.816;2022-09-09T08:21:36;100788.63;;;30.38;35.12
64889;BME280;51386;53.082;8.816;2022-09-09T08:24:07;100779.06;;;29.73;36.61
64889;BME280;51386;53.082;8.816;2022-09-09T08:26:37;100793.34;;;29.32;37.05
64889;BME280;51386;53.082;8.816;2022-09-09T08:29:07;100783.34;;;29.14;37.98
64889;BME280;51386;53.082;8.816;2022-09-09T08:31:37;100788.75;;;29.46;37.61
64889;BME280;51386;53.082;8.816;2022-09-09T08:34:06;100798.00;;;29.78;37.03
64889;BME280;51386;53.082;8.816;2022-09-09T08:36:36;100800.72;;;29.78;36.87
64889;BME280;51386;53.082;8.816;2022-09-09T08:39:10;100796.41;;;29.58;37.11
64889;BME280;51386;53.082;8.816;2022-09-09T08:42:13;100789.25;;;29.35;37.67
64889;BME280;51386;53.082;8.816;2022-09-09T08:48:03;100802.63;;;28.57;38.92
64889;BME280;51386;53.082;8.816;2022-09-09T08:50:35;100798.97;;;28.00;39.94
64889;BME280;51386;53.082;8.816;2022-09-09T08:53:11;100800.06;;;27.47;40.98
64889;BME280;51386;53.082;8.816;2022-09-09T08:55:47;100800.38;;;27.07;42.04
64889;BME280;51386;53.082;8.816;2022-09-09T08:58:18;100806.25;;;26.70;42.37
64889;BME280;51386;53.082;8.816;2022-09-09T09:01:18;100804.88;;;26.29;43.47
64889;BME280;51386;53.082;8.816;2022-09-09T09:03:59;100805.72;;;26.14;44.73
64889;BME280;51386;53.082;8.816;2022-09-09T09:06:42;100805.75;;;25.99;44.77
64889;BME280;51386;53.082;8.816;2022-09-09T09:09:21;100806.88;;;25.83;45.18
64889;BME280;51386;53.082;8.816;2022-09-09T09:11:55;100806.91;;;25.63;45.64
64889;BME280;51386;53.082;8.816;2022-09-09T09:14:30;100804.47;;;25.76;45.33
64889;BME280;51386;53.082;8.816;2022-09-09T09:17:02;100803.09;;;25.84;44.68
64889;BME280;51386;53.082;8.816;2022-09-09T09:19:49;100808.81;;;25.67;44.82
64889;BME280;51386;53.082;8.816;2022-09-09T09:22:20;100805.03;;;25.58;44.66
64889;BME280;51386;53.082;8.816;2022-09-09T09:24:54;100807.47;;;25.70;45.04
64889;BME280;51386;53.082;8.816;2022-09-09T09:27:31;100809.59;;;25.78;44.88
64889;BME280;51386;53.082;8.816;2022-09-09T09:30:10;100806.22;;;26.31;44.07
64889;BME280;51386;53.082;8.816;2022-09-09T09:33:05;100802.91;;;26.44;43.44
64889;BME280;51386;53.082;8.816;2022-09-09T09:35:35;100797.53;;;27.56;41.87
64889;BME280;51386;53.082;8.816;2022-09-09T09:38:17;100803.91;;;29.15;39.39
64889;BME280;51386;53.082;8.816;2022-09-09T09:41:05;100803.53;;;30.00;36.66
64889;BME280;51386;53.082;8.816;2022-09-09T09:43:36;100792.72;;;30.99;35.42
64889;BME280;51386;53.082;8.816;2022-09-09T09:46:16;100803.88;;;31.19;34.96
64889;BME280;51386;53.082;8.816;2022-09-09T09:48:45;100799.81;;;30.72;35.40
64889;BME280;51386;53.082;8.816;2022-09-09T09:51:24;100806.34;;;29.95;35.52
64889;BME280;51386;53.082;8.816;2022-09-09T09:53:53;100806.94;;;29.14;36.74
64889;BME280;51386;53.082;8.816;2022-09-09T09:56:28;100809.25;;;28.46;37.46
64889;BME280;51386;53.082;8.816;2022-09-09T09:58:59;100800.13;;;27.94;38.85
64889;BME280;51386;53.082;8.816;2022-09-09T10:01:35;100803.59;;;27.47;40.35
64889;BME280;51386;53.082;8.816;2022-09-09T10:04:16;100803.19;;;27.88;40.25
64889;BME280;51386;53.082;8.816;2022-09-09T10:06:46;100807.03;;;28.90;38.73
64889;BME280;51386;53.082;8.816;2022-09-09T10:09:25;100794.69;;;29.81;37.71
64889;BME280;51386;53.082;8.816;2022-09-09T10:12:03;100800.44;;;30.69;36.58
64889;BME280;51386;53.082;8.816;2022-09-09T10:14:44;100812.47;;;30.91;35.60
64889;BME280;51386;53.082;8.816;2022-09-09T10:17:25;100814.00;;;30.34;35.22
64889;BME280;51386;53.082;8.816;2022-09-09T10:20:16;100803.19;;;29.28;36.89
64889;BME280;51386;53.082;8.816;2022-09-09T10:22:52;100806.00;;;28.86;37.59
64889;BME280;51386;53.082;8.816;2022-09-09T10:25:42;100795.31;;;28.76;38.29
64889;BME280;51386;53.082;8.816;2022-09-09T10:28:47;100808.72;;;29.05;37.89
64889;BME280;51386;53.082;8.816;2022-09-09T10:31:31;100801.66;;;29.22;37.41
64889;BME280;51386;53.082;8.816;2022-09-09T10:34:17;100800.84;;;29.03;37.56
64889;BME280;51386;53.082;8.816;2022-09-09T10:36:50;100814.13;;;28.86;37.98
64889;BME280;51386;53.082;8.816;2022-09-09T10:39:34;100808.72;;;28.67;38.45
64889;BME280;51386;53.082;8.816;2022-09-09T10:42:12;100808.97;;;28.47;38.49
64889;BME280;51386;53.082;8.816;2022-09-09T10:44:57;100808.41;;;28.27;39.06
64889;BME280;51386;53.082;8.816;2022-09-09T10:47:51;100804.97;;;27.97;39.26
64889;BME280;51386;53.082;8.816;2022-09-09T10:50:48;100798.56;;;27.65;40.32
64889;BME280;51386;53.082;8.816;2022-09-09T10:53:46;100806.25;;;27.52;40.26
64889;BME280;51386;53.082;8.816;2022-09-09T10:56:20;100798.34;;;27.56;40.52
64889;BME280;51386;53.082;8.816;2022-09-09T10:58:52;100814.19;;;27.68;40.44
64889;BME280;51386;53.082;8.816;2022-09-09T11:01:24;100806.38;;;27.66;39.82
64889;BME280;51386;53.082;8.816;2022-09-09T11:04:02;100818.97;;;27.52;39.56
64889;BME280;51386;53.082;8.816;2022-09-09T11:06:42;100809.59;;;27.39;40.02
64889;BME280;51386;53.082;8.816;2022-09-09T11:09:16;100809.06;;;27.37;40.23
64889;BME280;51386;53.082;8.816;2022-09-09T11:11:52;100811.44;;;27.44;40.41
64889;BME280;51386;53.082;8.816;2022-09-09T11:14:28;100800.28;;;27.50;40.20
64889;BME280;51386;53.082;8.816;2022-09-09T11:17:10;100804.78;;;27.60;40.20
64889;BME280;51386;53.082;8.816;2022-09-09T11:19:42;100807.34;;;27.75;40.18
64889;BME280;51386;53.082;8.816;2022-09-09T11:22:20;100815.91;;;27.87;39.86
64889;BME280;51386;53.082;8.816;2022-09-09T11:24:54;100803.44;;;27.86;39.68
64889;BME280;51386;53.082;8.816;2022-09-09T11:27:29;100804.75;;;27.65;39.93
64889;BME280;51386;53.082;8.816;2022-09-09T11:30:18;100797.47;;;27.32;40.23
64889;BME280;51386;53.082;8.816;2022-09-09T11:33:46;100792.63;;;27.29;40.43
64889;BME280;51386;53.082;8.816;2022-09-09T11:36:49;100803.94;;;27.36;39.99
64889;BME280;51386;53.082;8.816;2022-09-09T11:39:44;100813.13;;;27.35;39.90
64889;BME280;51386;53.082;8.816;2022-09-09T11:42:20;100810.94;;;27.37;40.07
64889;BME280;51386;53.082;8.816;2022-09-09T11:44:47;100802.31;;;27.35;40.39
64889;BME280;51386;53.082;8.816;2022-09-09T11:47:22;100803.47;;;27.29;40.76
64889;BME280;51386;53.082;8.816;2022-09-09T11:49:53;100805.38;;;27.23;41.29
64889;BME280;51386;53.082;8.816;2022-09-09T11:52:36;100797.22;;;26.95;41.78
64889;BME280;51386;53.082;8.816;2022-09-09T11:55:10;100802.22;;;26.67;42.27
64889;BME280;51386;53.082;8.816;2022-09-09T11:57:39;100808.91;;;26.36;43.21
64889;BME280;51386;53.082;8.816;2022-09-09T12:00:33;100817.88;;;26.06;44.46
64889;BME280;51386;53.082;8.816;2022-09-09T12:03:01;100827.91;;;25.91;45.12
64889;BME280;51386;53.082;8.816;2022-09-09T12:05:39;100831.69;;;25.75;45.27
64889;BME280;51386;53.082;8.816;2022-09-09T12:08:15;100835.50;;;25.64;45.63
64889;BME280;51386;53.082;8.816;2022-09-09T12:10:54;100829.56;;;25.51;47.14
64889;BME280;51386;53.082;8.816;2022-09-09T12:13:25;100827.94;;;25.35;47.72
64889;BME280;51386;53.082;8.816;2022-09-09T12:15:55;100825.22;;;25.20;48.34
64889;BME280;51386;53.082;8.816;2022-09-09T12:18:25;100824.44;;;25.15;48.42
64889;BME280;51386;53.082;8.816;2022-09-09T12:21:03;100826.03;;;25.01;49.21
64889;BME280;51386;53.082;8.816;2022-09-09T12:23:44;100824.88;;;24.71;50.75
64889;BME280;51386;53.082;8.816;2022-09-09T12:26:27;100832.63;;;24.58;50.62
64889;BME280;51386;53.082;8.816;2022-09-09T12:29:11;100841.72;;;24.47;51.57
64889;BME280;51386;53.082;8.816;2022-09-09T12:31:48;100836.31;;;24.42;51.53
64889;BME280;51386;53.082;8.816;2022-09-09T12:34:34;100832.53;;;24.33;51.56
64889;BME280;51386;53.082;8.816;2022-09-09T12:37:14;100819.34;;;24.31;51.55
64889;BME280;51386;53.082;8.816;2022-09-09T12:39:54;100815.28;;;24.29;50.29
64889;BME280;51386;53.082;8.816;2022-09-09T12:42:23;100822.31;;;24.35;50.43
64889;BME280;51386;53.082;8.816;2022-09-09T12:44:56;100815.88;;;24.41;50.19
64889;BME280;51386;53.082;8.816;2022-09-09T12:47:36;100812.13;;;24.47;50.57
64889;BME280;51386;53.082;8.816;2022-09-09T12:50:15;100822.38;;;24.55;50.20
64889;BME280;51386;53.082;8.816;2022-09-09T12:52:44;100814.88;;;24.67;50.19
64889;BME280;51386;53.082;8.816;2022-09-09T12:55:20;100819.72;;;24.70;49.25
64889;BME280;51386;53.082;8.816;2022-09-09T12:57:50;100822.97;;;24.72;50.04
64889;BME280;51386;53.082;8.816;2022-09-09T13:00:20;100824.31;;;24.69;51.20
64889;BME280;51386;53.082;8.816;2022-09-09T13:02:53;100831.59;;;24.69;51.34
64889;BME280;51386;53.082;8.816;2022-09-09T13:05:24;100824.31;;;24.69;50.75
64889;BME280;51386;53.082;8.816;2022-09-09T13:08:00;100824.56;;;24.68;50.63
64889;BME280;51386;53.082;8.816;2022-09-09T13:10:35;100826.22;;;24.74;51.14
64889;BME280;51386;53.082;8.816;2022-09-09T13:13:23;100815.22;;;24.80;51.18
64889;BME280;51386;53.082;8.816;2022-09-09T13:15:54;100814.44;;;24.90;51.04
64889;BME280;51386;53.082;8.816;2022-09-09T13:18:25;100813.09;;;25.03;51.79
64889;BME280;51386;53.082;8.816;2022-09-09T13:20:54;100809.34;;;25.14;51.37
64889;BME280;51386;53.082;8.816;2022-09-09T13:23:29;100811.50;;;25.22;51.14
64889;BME280;51386;53.082;8.816;2022-09-09T13:26:00;100812.56;;;25.26;50.77
64889;BME280;51386;53.082;8.816;2022-09-09T13:28:30;100821.47;;;25.26;50.13